createdAt,value
2022-09-20T00:01:24.195Z,5.68
2022-09-20T00:03:53.055Z,6.45
2022-09-20T00:06:21.509Z,7.68
2022-09-20T00:08:48.650Z,6.97
2022-09-20T00:11:18.397Z,6.18
2022-09-20T00:13:46.428Z,5.57
2022-09-20T00:16:24.273Z,6.22
2022-09-20T00:18:52.356Z,4.60
2022-09-20T00:21:21.861Z,4.50
2022-09-20T00:23:48.314Z,2.67
2022-09-20T00:26:14.778Z,5.35
2022-09-20T00:28:41.881Z,4.85
2022-09-20T00:31:08.276Z,4.97
2022-09-20T00:33:53.200Z,7.18
2022-09-20T00:36:19.589Z,5.22
2022-09-20T00:38:45.971Z,3.65
2022-09-20T00:41:12.464Z,2.67
2022-09-20T00:43:44.379Z,3.50
2022-09-20T00:46:20.797Z,4.43
2022-09-20T00:48:48.539Z,5.03
2022-09-20T00:51:18.051Z,4.55
2022-09-20T00:53:47.639Z,4.72
2022-09-20T00:56:17.774Z,4.40
2022-09-20T00:58:47.222Z,5.47
2022-09-20T01:01:13.750Z,6.15
2022-09-20T01:03:42.137Z,5.15
2022-09-20T01:06:12.081Z,4.85
2022-09-20T01:08:39.695Z,4.30
2022-09-20T01:11:06.169Z,7.05
2022-09-20T01:13:32.597Z,4.95
2022-09-20T01:16:00.406Z,9.80
2022-09-20T01:18:27.641Z,5.40
2022-09-20T01:20:54.634Z,5.10
2022-09-20T01:23:34.717Z,4.85
2022-09-20T01:26:27.069Z,7.13
2022-09-20T01:29:09.397Z,6.53
2022-09-20T01:31:43.364Z,6.55
2022-09-20T01:34:29.793Z,4.97
2022-09-20T01:37:05.345Z,5.32
2022-09-20T01:39:40.185Z,6.75
2022-09-20T01:42:09.445Z,6.57
2022-09-20T01:44:49.360Z,7.00
2022-09-20T01:47:37.425Z,7.95
2022-09-20T01:50:15.504Z,7.00
2022-09-20T01:53:01.407Z,7.75
2022-09-20T01:56:10.322Z,6.63
2022-09-20T01:59:23.549Z,6.47
2022-09-20T02:01:53.351Z,6.90
2022-09-20T02:04:59.845Z,4.80
2022-09-20T02:07:44.087Z,5.35
2022-09-20T02:10:35.399Z,6.57
2022-09-20T02:13:10.874Z,5.35
2022-09-20T02:15:57.020Z,7.65
2022-09-20T02:19:00.854Z,5.95
2022-09-20T02:21:54.834Z,5.07
2022-09-20T02:24:41.187Z,4.15
2022-09-20T02:27:24.308Z,7.43
2022-09-20T02:30:13.220Z,4.38
2022-09-20T02:33:25.089Z,5.00
2022-09-20T02:35:58.700Z,6.10
2022-09-20T02:38:57.526Z,5.97
2022-09-20T02:41:35.970Z,4.40
2022-09-20T02:44:28.589Z,4.25
2022-09-20T02:47:17.331Z,6.45
2022-09-20T02:50:19.942Z,5.85
2022-09-20T02:53:16.561Z,5.60
2022-09-20T02:56:03.690Z,7.88
2022-09-20T02:59:00.393Z,7.60
2022-09-20T03:01:39.693Z,8.13
2022-09-20T03:04:22.350Z,8.27
2022-09-20T03:07:00.993Z,10.57
2022-09-20T03:09:43.512Z,9.15
2022-09-20T03:12:34.238Z,7.22
2022-09-20T03:15:14.263Z,6.40
2022-09-20T03:17:50.606Z,4.75
2022-09-20T03:20:27.545Z,7.00
2022-09-20T03:23:10.796Z,11.25
2022-09-20T03:25:52.266Z,7.15
2022-09-20T03:28:38.648Z,9.63
2022-09-20T03:31:27.164Z,9.65
2022-09-20T03:34:09.682Z,14.15
2022-09-20T03:36:49.324Z,11.65
2022-09-20T03:39:39.934Z,14.23
2022-09-20T03:42:17.865Z,9.50
2022-09-20T03:45:17.761Z,11.23
2022-09-20T03:48:23.525Z,12.05
2022-09-20T03:51:18.754Z,13.65
2022-09-20T03:54:03.968Z,12.68
2022-09-20T03:56:52.047Z,10.18
2022-09-20T03:59:29.408Z,13.10
2022-09-20T04:02:07.194Z,13.55
2022-09-20T04:04:41.946Z,12.10
2022-09-20T04:07:26.427Z,15.63
2022-09-20T04:10:03.726Z,10.10
2022-09-20T04:12:40.953Z,12.35
2022-09-20T04:15:13.331Z,10.90
2022-09-20T04:17:52.517Z,10.10
2022-09-20T04:20:24.961Z,10.05
2022-09-20T04:22:52.287Z,11.05
2022-09-20T04:25:22.305Z,10.00
2022-09-20T04:27:56.482Z,11.93
2022-09-20T04:30:30.118Z,13.20
2022-09-20T04:33:01.695Z,12.73
2022-09-20T04:36:22.656Z,9.38
2022-09-20T04:39:17.874Z,9.75
2022-09-20T04:41:53.124Z,13.57
2022-09-20T04:44:45.915Z,10.88
2022-09-20T04:47:25.386Z,8.38
2022-09-20T04:50:30.277Z,7.55
2022-09-20T04:53:14.884Z,7.88
2022-09-20T04:56:10.438Z,11.27
2022-09-20T04:58:49.668Z,11.77
2022-09-20T05:01:35.620Z,8.93
2022-09-20T05:04:26.238Z,13.07
2022-09-20T05:06:58.840Z,12.10
2022-09-20T05:09:50.118Z,11.80
2022-09-20T05:12:35.507Z,10.80
2022-09-20T05:15:09.403Z,12.95
2022-09-20T05:17:38.796Z,10.93
2022-09-20T05:20:43.837Z,10.38
2022-09-20T05:23:36.379Z,10.50
2022-09-20T05:26:13.001Z,9.18
2022-09-20T05:28:49.648Z,13.82
2022-09-20T05:31:38.116Z,15.43
2022-09-20T05:34:15.092Z,14.18
2022-09-20T05:37:09.473Z,14.15
2022-09-20T05:39:37.013Z,11.95
2022-09-20T05:42:18.333Z,11.00
2022-09-20T05:45:07.808Z,11.13
2022-09-20T05:47:50.304Z,11.50
2022-09-20T05:50:36.375Z,12.02
2022-09-20T05:53:41.675Z,11.07
2022-09-20T05:56:32.814Z,12.05
2022-09-20T05:59:46.795Z,7.07
2022-09-20T06:02:42.557Z,9.57
2022-09-20T06:05:14.182Z,10.52
2022-09-20T06:07:52.463Z,10.60
2022-09-20T06:10:31.572Z,9.85
2022-09-20T06:13:43.029Z,9.27
2022-09-20T06:16:15.377Z,8.85
2022-09-20T06:19:16.813Z,8.75
2022-09-20T06:21:55.012Z,10.15
2022-09-20T06:24:39.372Z,9.50
2022-09-20T06:27:10.382Z,11.30
2022-09-20T06:29:40.860Z,11.00
2022-09-20T06:32:08.246Z,5.70
2022-09-20T06:34:35.179Z,7.40
2022-09-20T06:37:36.980Z,9.63
2022-09-20T06:40:48.851Z,7.75
2022-09-20T06:43:16.044Z,11.55
2022-09-20T06:45:42.810Z,8.30
2022-09-20T06:48:13.207Z,7.15
2022-09-20T06:50:40.006Z,8.13
2022-09-20T06:53:06.643Z,8.68
2022-09-20T06:55:37.467Z,9.48
2022-09-20T06:58:04.222Z,13.85
2022-09-20T07:00:30.700Z,9.20
2022-09-20T07:02:57.238Z,11.15
2022-09-20T07:05:24.409Z,8.88
2022-09-20T07:07:50.799Z,11.88
2022-09-20T07:10:17.229Z,8.95
2022-09-20T07:12:43.632Z,7.45
2022-09-20T07:15:10.217Z,8.27
2022-09-20T07:17:36.637Z,9.40
2022-09-20T07:20:03.442Z,9.93
2022-09-20T07:22:29.838Z,9.73
2022-09-20T07:24:56.257Z,13.20
2022-09-20T07:27:24.725Z,11.10
2022-09-20T07:29:54.024Z,10.07
2022-09-20T07:32:20.415Z,8.15
2022-09-20T07:34:47.002Z,9.25
2022-09-20T07:37:13.951Z,8.75
2022-09-20T07:39:40.361Z,7.88
2022-09-20T07:42:08.077Z,8.57
2022-09-20T07:44:34.469Z,12.38
2022-09-20T07:47:01.201Z,8.50
2022-09-20T07:49:30.264Z,10.40
2022-09-20T07:51:56.805Z,8.43
2022-09-20T07:54:23.223Z,9.23
2022-09-20T07:56:49.613Z,8.63
2022-09-20T07:59:16.250Z,8.85
2022-09-20T08:01:42.808Z,7.80
2022-09-20T08:04:09.938Z,7.38
2022-09-20T08:06:37.957Z,6.40
2022-09-20T08:09:08.981Z,6.55
2022-09-20T08:11:39.408Z,6.70
2022-09-20T08:14:07.522Z,6.35
2022-09-20T08:16:39.330Z,8.35
2022-09-20T08:19:05.789Z,6.78
2022-09-20T08:21:33.587Z,4.50
2022-09-20T08:24:00.201Z,4.70
2022-09-20T08:26:28.304Z,6.82
2022-09-20T08:28:56.738Z,7.40
2022-09-20T08:31:26.602Z,4.82
2022-09-20T08:33:54.157Z,5.63
2022-09-20T08:36:23.901Z,8.40
2022-09-20T08:41:57.519Z,6.35
2022-09-20T08:44:36.621Z,6.35
2022-09-20T08:47:05.568Z,8.82
2022-09-20T08:49:32.381Z,6.75
2022-09-20T08:51:59.199Z,6.25
2022-09-20T08:54:32.026Z,5.05
2022-09-20T08:57:05.261Z,5.22
2022-09-20T08:59:32.066Z,6.40
2022-09-20T09:01:59.814Z,7.65
2022-09-20T09:04:34.541Z,4.13
2022-09-20T09:07:01.023Z,8.07
2022-09-20T09:09:28.920Z,5.05
2022-09-20T09:11:56.973Z,5.22
2022-09-20T09:14:48.244Z,5.18
2022-09-20T09:17:32.733Z,5.35
2022-09-20T09:20:28.726Z,5.53
2022-09-20T09:23:08.894Z,5.45
2022-09-20T09:25:39.510Z,4.20
2022-09-20T09:28:08.877Z,9.38
2022-09-20T09:30:47.520Z,7.32
2022-09-20T09:33:20.002Z,4.50
2022-09-20T09:35:53.880Z,6.43
2022-09-20T09:38:24.147Z,7.20
2022-09-20T09:40:56.274Z,6.00
2022-09-20T09:43:28.521Z,4.10
2022-09-20T09:45:56.987Z,6.43
2022-09-20T09:48:30.566Z,3.88
2022-09-20T09:51:15.354Z,6.68
2022-09-20T09:53:42.725Z,8.10
2022-09-20T09:56:30.942Z,5.43
2022-09-20T09:59:30.685Z,5.20
2022-09-20T10:02:13.041Z,5.28
2022-09-20T10:04:51.657Z,4.13
2022-09-20T10:07:35.678Z,4.88
2022-09-20T10:10:41.351Z,5.03
2022-09-20T10:13:35.973Z,4.60
2022-09-20T10:16:32.335Z,4.07
2022-09-20T10:19:08.532Z,4.35
2022-09-20T10:21:52.225Z,4.53
2022-09-20T10:24:30.467Z,3.97
2022-09-20T10:26:59.801Z,3.13
2022-09-20T10:29:41.861Z,5.43
2022-09-20T10:32:40.189Z,5.05
2022-09-20T10:35:16.003Z,3.58
2022-09-20T10:38:04.007Z,5.28
2022-09-20T10:41:16.883Z,3.50
2022-09-20T10:44:05.362Z,3.90
2022-09-20T10:46:53.743Z,3.63
2022-09-20T10:49:50.382Z,2.67
2022-09-20T10:52:46.789Z,3.20
2022-09-20T10:55:31.891Z,3.20
2022-09-20T10:58:15.997Z,3.88
2022-09-20T11:01:02.179Z,3.70
2022-09-20T11:03:37.798Z,3.97
2022-09-20T11:06:15.957Z,2.75
2022-09-20T11:08:43.308Z,3.78
2022-09-20T11:11:12.406Z,3.58
2022-09-20T11:14:00.037Z,2.50
2022-09-20T11:16:38.269Z,3.75
2022-09-20T11:19:16.792Z,2.97
2022-09-20T11:21:48.365Z,2.67
2022-09-20T11:24:35.105Z,2.45
2022-09-20T11:27:14.466Z,2.53
2022-09-20T11:29:46.839Z,5.13
2022-09-20T11:32:27.436Z,3.47
2022-09-20T11:35:10.590Z,2.97
2022-09-20T11:37:43.585Z,2.28
2022-09-20T11:40:22.522Z,3.75
2022-09-20T11:42:50.076Z,2.30
2022-09-20T11:45:16.633Z,2.13
2022-09-20T11:47:55.704Z,5.00
2022-09-20T11:50:56.714Z,2.38
2022-09-20T11:53:37.016Z,2.95
2022-09-20T11:56:10.710Z,2.72
2022-09-20T11:58:48.169Z,3.38
2022-09-20T12:01:16.457Z,3.13
2022-09-20T12:03:50.652Z,2.85
2022-09-20T12:06:33.244Z,4.70
2022-09-20T12:09:03.522Z,1.90
2022-09-20T12:11:36.071Z,1.90
2022-09-20T12:14:07.217Z,3.38
2022-09-20T12:16:42.205Z,1.90
2022-09-20T12:19:36.290Z,1.85
2022-09-20T12:22:05.335Z,1.83
2022-09-20T12:24:34.131Z,1.95
2022-09-20T12:27:02.807Z,1.60
2022-09-20T12:29:32.910Z,1.50
2022-09-20T12:32:05.349Z,1.38
2022-09-20T12:34:36.508Z,1.60
2022-09-20T12:37:04.637Z,2.90
2022-09-20T12:39:36.024Z,1.55
2022-09-20T12:42:03.697Z,2.03
2022-09-20T12:44:32.222Z,1.38
2022-09-20T12:47:02.521Z,2.08
2022-09-20T12:49:51.533Z,1.42
2022-09-20T12:52:57.067Z,1.23
2022-09-20T12:55:33.050Z,1.20
2022-09-20T12:58:16.702Z,1.13
2022-09-20T13:01:04.417Z,1.13
2022-09-20T13:03:39.731Z,1.33
2022-09-20T13:06:06.202Z,0.90
2022-09-20T13:08:36.607Z,1.20
2022-09-20T13:11:13.542Z,1.05
2022-09-20T13:13:44.589Z,1.40
2022-09-20T13:16:20.047Z,1.25
2022-09-20T13:18:47.337Z,1.70
2022-09-20T13:21:13.796Z,1.30
2022-09-20T13:23:48.285Z,1.40
2022-09-20T13:26:16.030Z,2.20
2022-09-20T13:28:54.531Z,0.70
2022-09-20T13:31:20.904Z,0.80
2022-09-20T13:33:50.469Z,0.57
2022-09-20T13:36:24.684Z,1.55
2022-09-20T13:38:51.318Z,0.85
2022-09-20T13:41:17.974Z,0.70
2022-09-20T13:43:46.381Z,0.80
2022-09-20T13:46:32.928Z,0.68
2022-09-20T13:49:12.977Z,1.17
2022-09-20T13:51:39.465Z,1.40
2022-09-20T13:54:22.026Z,0.65
2022-09-20T13:56:49.474Z,1.38
2022-09-20T13:59:19.495Z,1.40
2022-09-20T14:01:51.653Z,1.25
2022-09-20T14:04:23.778Z,0.73
2022-09-20T14:06:51.904Z,0.73
2022-09-20T14:09:39.189Z,1.33
2022-09-20T14:12:06.159Z,0.65
2022-09-20T14:14:34.222Z,0.82
2022-09-20T14:17:01.862Z,2.17
2022-09-20T14:19:33.515Z,0.70
2022-09-20T14:22:04.465Z,2.33
2022-09-20T14:24:35.293Z,0.60
2022-09-20T14:27:15.011Z,1.42
2022-09-20T14:30:04.542Z,1.00
2022-09-20T14:32:50.703Z,1.55
2022-09-20T14:35:19.428Z,0.98
2022-09-20T14:37:48.904Z,1.60
2022-09-20T14:40:24.498Z,0.85
2022-09-20T14:43:00.633Z,0.65
2022-09-20T14:45:30.803Z,2.53
2022-09-20T14:48:06.871Z,0.60
2022-09-20T14:50:39.844Z,0.80
2022-09-20T14:53:21.479Z,0.50
2022-09-20T14:56:09.068Z,0.50
2022-09-20T14:59:09.326Z,0.75
2022-09-20T15:01:37.561Z,1.20
2022-09-20T15:04:09.468Z,0.47
2022-09-20T15:06:38.915Z,0.57
2022-09-20T15:09:05.568Z,0.70
2022-09-20T15:11:32.117Z,0.60
2022-09-20T15:13:58.510Z,0.50
2022-09-20T15:16:24.950Z,0.95
2022-09-20T15:18:51.396Z,1.10
2022-09-20T15:21:17.894Z,2.00
2022-09-20T15:23:44.317Z,0.40
2022-09-20T15:26:13.211Z,0.50
2022-09-20T15:28:40.238Z,1.27
2022-09-20T15:31:06.769Z,0.75
2022-09-20T15:33:33.505Z,0.40
2022-09-20T15:36:02.097Z,0.65
2022-09-20T15:38:28.638Z,2.28
2022-09-20T15:40:55.089Z,2.55
2022-09-20T15:43:24.235Z,0.68
2022-09-20T15:45:52.899Z,0.63
2022-09-20T15:48:21.790Z,1.17
2022-09-20T15:51:07.882Z,3.30
2022-09-20T15:53:36.870Z,0.70
2022-09-20T15:56:05.589Z,0.70
2022-09-20T15:58:36.106Z,0.73
2022-09-20T16:01:05.903Z,0.65
2022-09-20T16:03:32.717Z,0.50
2022-09-20T16:06:04.119Z,0.50
2022-09-20T16:08:36.326Z,1.42
2022-09-20T16:11:03.144Z,0.68
2022-09-20T16:13:29.949Z,0.75
2022-09-20T16:15:58.076Z,0.80
2022-09-20T16:18:43.486Z,0.30
2022-09-20T16:21:12.379Z,1.50
2022-09-20T16:23:39.870Z,1.17
2022-09-20T16:26:06.927Z,0.40
2022-09-20T16:28:33.362Z,0.40
2022-09-20T16:31:00.080Z,0.60
2022-09-20T16:33:26.525Z,1.52
2022-09-20T16:35:52.929Z,0.30
2022-09-20T16:38:19.352Z,0.52
2022-09-20T16:40:51.411Z,0.80
2022-09-20T16:43:23.934Z,1.17
2022-09-20T16:45:59.286Z,0.85
2022-09-20T16:48:31.189Z,2.42
2022-09-20T16:50:59.040Z,0.75
2022-09-20T16:53:26.326Z,0.55
2022-09-20T16:55:55.691Z,0.82
2022-09-20T16:58:29.725Z,0.73
2022-09-20T17:01:06.260Z,0.77
2022-09-20T17:03:34.102Z,0.88
2022-09-20T17:06:03.601Z,1.73
2022-09-20T17:08:30.003Z,1.42
2022-09-20T17:11:01.114Z,0.52
2022-09-20T17:13:32.898Z,0.68
2022-09-20T17:16:01.110Z,0.70
2022-09-20T17:18:27.686Z,0.70
2022-09-20T17:20:54.065Z,2.20
2022-09-20T17:23:21.048Z,1.30
2022-09-20T17:25:48.136Z,1.40
2022-09-20T17:28:14.706Z,1.52
2022-09-20T17:30:41.125Z,0.50
2022-09-20T17:33:07.517Z,1.17
2022-09-20T17:35:33.904Z,0.98
2022-09-20T17:38:00.302Z,1.30
2022-09-20T17:40:26.853Z,0.68
2022-09-20T17:42:55.161Z,3.35
2022-09-20T17:45:21.541Z,1.17
2022-09-20T17:47:47.928Z,1.00
2022-09-20T17:50:15.308Z,2.00
2022-09-20T17:52:42.180Z,0.70
2022-09-20T17:55:08.683Z,0.98
2022-09-20T17:57:35.081Z,1.30
2022-09-20T18:00:01.972Z,2.05
2022-09-20T18:02:28.377Z,1.23
2022-09-20T18:04:54.782Z,1.65
2022-09-20T18:07:21.170Z,2.15
2022-09-20T18:09:47.668Z,2.60
2022-09-20T18:12:18.889Z,2.08
2022-09-20T18:14:47.280Z,1.40
2022-09-20T18:17:13.698Z,1.45
2022-09-20T18:19:41.142Z,1.45
2022-09-20T18:22:07.546Z,1.35
2022-09-20T18:24:33.973Z,3.42
2022-09-20T18:27:04.463Z,1.88
2022-09-20T18:29:36.417Z,1.50
2022-09-20T18:32:02.933Z,1.02
2022-09-20T18:34:33.975Z,1.23
2022-09-20T18:37:01.331Z,2.78
2022-09-20T18:39:30.946Z,2.47
2022-09-20T18:41:57.386Z,1.20
2022-09-20T18:44:24.225Z,0.93
2022-09-20T18:46:54.900Z,1.10
2022-09-20T18:49:21.759Z,3.40
2022-09-20T18:51:48.824Z,3.35
2022-09-20T18:54:15.500Z,2.85
2022-09-20T18:56:43.952Z,2.85
2022-09-20T18:59:21.842Z,3.33
2022-09-20T19:01:55.819Z,2.45
2022-09-20T19:04:46.706Z,1.65
2022-09-20T19:07:16.036Z,4.60
2022-09-20T19:10:19.417Z,5.30
2022-09-20T19:13:05.016Z,2.38
2022-09-20T19:15:41.020Z,4.07
2022-09-20T19:18:25.650Z,1.10
2022-09-20T19:20:59.359Z,2.03
2022-09-20T19:24:05.850Z,1.80
2022-09-20T19:26:38.039Z,1.20
2022-09-20T19:29:16.674Z,1.50
2022-09-20T19:31:43.298Z,2.17
2022-09-20T19:34:18.176Z,1.52
2022-09-20T19:37:19.871Z,1.88
2022-09-20T19:40:14.047Z,2.75
2022-09-20T19:43:03.561Z,3.10
2022-09-20T19:45:57.756Z,2.15
2022-09-20T19:48:40.860Z,6.63
2022-09-20T19:51:11.612Z,2.40
2022-09-20T19:53:39.213Z,2.28
2022-09-20T19:56:27.755Z,1.33
2022-09-20T19:58:56.267Z,3.35
2022-09-20T20:01:24.171Z,4.47
2022-09-20T20:03:51.809Z,2.28
2022-09-20T20:06:38.952Z,2.50
2022-09-20T20:09:36.463Z,3.00
2022-09-20T20:12:02.743Z,1.98
2022-09-20T20:14:41.249Z,1.13
2022-09-20T20:17:33.445Z,1.40
2022-09-20T20:20:06.057Z,2.83
2022-09-20T20:23:04.433Z,2.08
2022-09-20T20:25:50.094Z,1.23
2022-09-20T20:28:16.470Z,1.63
2022-09-20T20:30:42.881Z,2.80
2022-09-20T20:33:16.059Z,2.15
2022-09-20T20:35:42.551Z,2.15
2022-09-20T20:38:10.552Z,2.92
2022-09-20T20:40:37.734Z,3.30
2022-09-20T20:43:06.089Z,3.35
2022-09-20T20:45:32.550Z,3.88
2022-09-20T20:47:59.239Z,1.85
2022-09-20T20:50:27.003Z,1.70
2022-09-20T20:52:54.204Z,3.20
2022-09-20T20:55:20.600Z,2.35
2022-09-20T20:57:57.983Z,2.33
2022-09-20T21:00:25.608Z,0.82
2022-09-20T21:02:59.741Z,5.22
2022-09-20T21:05:28.026Z,1.67
2022-09-20T21:07:54.948Z,2.47
2022-09-20T21:10:22.261Z,2.33
2022-09-20T21:12:50.303Z,2.85
2022-09-20T21:15:20.047Z,2.53
2022-09-20T21:17:53.123Z,2.22
2022-09-20T21:20:20.314Z,2.08
2022-09-20T21:22:46.731Z,1.38
2022-09-20T21:25:13.172Z,2.55
2022-09-20T21:27:39.606Z,2.25
2022-09-20T21:30:06.600Z,1.75
2022-09-20T21:32:32.982Z,5.18
2022-09-20T21:34:59.471Z,1.23
2022-09-20T21:37:25.893Z,2.30
2022-09-20T21:39:54.372Z,6.45
2022-09-20T21:42:20.768Z,1.90
2022-09-20T21:44:47.169Z,1.55
2022-09-20T21:47:20.476Z,1.25
2022-09-20T21:49:47.615Z,0.85
2022-09-20T21:52:14.470Z,1.33
2022-09-20T21:54:40.885Z,3.70
2022-09-20T21:57:07.382Z,2.38
2022-09-20T21:59:33.760Z,1.10
2022-09-20T22:02:00.170Z,2.88
2022-09-20T22:04:29.132Z,1.33
2022-09-20T22:06:55.581Z,2.97
2022-09-20T22:09:24.025Z,1.65
2022-09-20T22:11:50.676Z,2.95
2022-09-20T22:14:19.354Z,4.40
2022-09-20T22:16:46.994Z,1.95
2022-09-20T22:19:14.993Z,1.50
2022-09-20T22:21:46.727Z,2.08
2022-09-20T22:24:14.172Z,2.15
2022-09-20T22:26:45.725Z,3.00
2022-09-20T22:29:12.257Z,2.15
2022-09-20T22:31:46.732Z,2.13
2022-09-20T22:34:18.054Z,1.83
2022-09-20T22:36:44.494Z,1.92
2022-09-20T22:39:12.433Z,2.05
2022-09-20T22:41:40.972Z,2.55
2022-09-20T22:44:07.578Z,4.15
2022-09-20T22:46:34.385Z,3.70
2022-09-20T22:49:01.063Z,5.55
2022-09-20T22:51:33.558Z,1.55
2022-09-20T22:54:00.752Z,1.60
2022-09-20T22:56:31.098Z,3.65
2022-09-20T22:59:01.976Z,3.33
2022-09-20T23:01:47.799Z,1.42
2022-09-20T23:04:16.545Z,4.43
2022-09-20T23:06:44.930Z,1.65
2022-09-20T23:09:12.917Z,1.70
2022-09-20T23:11:41.863Z,2.25
2022-09-20T23:14:10.912Z,5.57
2022-09-20T23:16:37.704Z,2.85
2022-09-20T23:19:05.654Z,1.73
2022-09-20T23:21:32.809Z,4.95
2022-09-20T23:24:01.236Z,3.42
2022-09-20T23:26:29.810Z,1.80
2022-09-20T23:29:07.401Z,3.13
2022-09-20T23:31:36.413Z,3.60
2022-09-20T23:34:04.532Z,2.75
2022-09-20T23:36:32.457Z,1.30
2022-09-20T23:38:58.979Z,1.30
2022-09-20T23:41:26.791Z,2.70
2022-09-20T23:43:53.643Z,2.63
2022-09-20T23:46:21.461Z,2.72
2022-09-20T23:48:48.122Z,2.58
2022-09-20T23:51:16.781Z,2.25
2022-09-20T23:53:43.659Z,3.40
2022-09-20T23:56:11.108Z,0.77
2022-09-20T23:58:38.803Z,1.10
